Time;durP1;ratioP1;P1;durP2;ratioP2;P2;SDS_P1;SDS_P2;PMS_P1;PMS_P2;Temp;Humidity;BMP_temperature;BMP_pressure;BME280_temperature;BME280_humidity;BME280_pressure;Samples;Min_cycle;Max_cycle;Signal;HPM_P1;HPM_P2
2022/09/25 00:00:56;;;;;;;7.35;6.40;;;;;;;7.50;73.40;99313.34;1804500;79;21506;-44
2022/09/25 00:03:25;;;;;;;12.47;6.78;;;;;;;7.42;73.63;99311.77;1804546;79;20930;-43
2022/09/25 00:06:05;;;;;;;7.30;5.55;;;;;;;7.36;73.87;99312.33;1798373;79;21072;-43
2022/09/25 00:08:33;;;;;;;5.22;4.05;;;;;;;7.33;74.08;99308.41;1803435;79;20993;-44
2022/09/25 00:11:00;;;;;;;9.13;5.03;;;;;;;7.38;74.06;99307.39;1804750;79;21097;-43
2022/09/25 00:13:27;;;;;;;5.50;4.28;;;;;;;7.43;73.89;99305.81;1779575;79;21079;-44
2022/09/25 00:15:55;;;;;;;4.35;3.92;;;;;;;7.44;74.02;99302.00;1804291;79;20997;-43
2022/09/25 00:21:11;;;;;;;4.20;3.50;;;;;;;7.37;74.38;99301.20;1804223;79;21065;-43
2022/09/25 00:23:40;;;;;;;7.10;3.50;;;;;;;7.33;74.51;99296.27;1804536;79;21160;-44
2022/09/25 00:26:07;;;;;;;5.08;3.35;;;;;;;7.35;74.54;99295.94;1804199;79;21033;-44
2022/09/25 00:28:36;;;;;;;4.75;3.25;;;;;;;7.42;74.48;99295.58;1804192;79;21010;-44
2022/09/25 00:31:05;;;;;;;5.45;3.55;;;;;;;7.49;74.43;99298.28;1804447;79;21480;-44
2022/09/25 00:33:33;;;;;;;3.65;3.17;;;;;;;7.50;74.46;99299.85;1804639;79;21044;-44
2022/09/25 00:36:08;;;;;;;5.40;3.75;;;;;;;7.49;74.34;99303.11;1804226;79;21155;-43
2022/09/25 00:38:36;;;;;;;4.65;3.35;;;;;;;7.49;74.29;99311.77;1804641;79;20926;-44
2022/09/25 00:41:04;;;;;;;7.03;3.25;;;;;;;7.48;74.15;99306.93;1804154;79;21546;-43
2022/09/25 00:43:40;;;;;;;6.47;3.62;;;;;;;7.52;74.03;99311.08;1804651;79;21005;-44
2022/09/25 00:46:13;;;;;;;7.10;3.70;;;;;;;7.53;74.13;99307.25;1804447;79;21021;-43
2022/09/25 00:48:55;;;;;;;6.58;4.25;;;;;;;7.49;74.34;99309.86;1804367;79;21118;-44
2022/09/25 00:51:28;;;;;;;4.17;3.70;;;;;;;7.43;74.56;99307.95;1803835;79;20961;-43
2022/09/25 00:53:58;;;;;;;7.33;3.67;;;;;;;7.41;74.68;99306.14;1804375;79;21068;-44
2022/09/25 00:56:25;;;;;;;;;;;;;;;7.45;74.60;99308.97;1807221;79;21056;-44
2022/09/25 00:58:51;;;;;;;3.98;3.45;;;;;;;7.51;74.47;99306.23;1804817;79;20185;-44
2022/09/25 01:01:18;;;;;;;6.30;3.80;;;;;;;7.47;74.60;99308.05;1804357;79;21238;-43
2022/09/25 01:03:45;;;;;;;5.53;3.75;;;;;;;7.48;74.63;99310.97;1804289;79;20992;-43
2022/09/25 01:06:14;;;;;;;7.87;3.90;;;;;;;7.48;74.60;99302.09;1804219;79;21021;-43
2022/09/25 01:08:40;;;;;;;4.87;3.75;;;;;;;7.44;74.60;99306.04;1804476;79;21009;-43
2022/09/25 01:11:08;;;;;;;4.15;3.62;;;;;;;7.45;74.52;99303.57;1804197;79;21275;-43
2022/09/25 01:13:34;;;;;;;5.47;3.83;;;;;;;7.49;74.43;99307.16;1804215;79;21230;-43
2022/09/25 01:16:22;;;;;;;5.95;3.80;;;;;;;7.51;74.41;99301.41;1804003;79;21013;-43
2022/09/25 01:19:22;;;;;;;8.83;4.30;;;;;;;7.45;74.59;99302.22;1802764;79;21095;-43
2022/09/25 01:21:55;;;;;;;5.92;4.22;;;;;;;7.37;74.89;99301.20;1785426;79;21005;-44
2022/09/25 01:24:49;;;;;;;6.05;4.00;;;;;;;7.31;75.07;99299.09;1796484;79;20990;-43
2022/09/25 01:27:40;;;;;;;6.72;4.12;;;;;;;7.30;75.15;99298.31;1791119;79;21242;-44
2022/09/25 01:30:13;;;;;;;5.85;3.70;;;;;;;7.34;75.09;99299.76;1728780;80;21018;-43
2022/09/25 01:33:01;;;;;;;4.33;3.72;;;;;;;7.30;75.16;99302.35;1796908;79;21013;-43
2022/09/25 01:36:04;;;;;;;8.10;4.25;;;;;;;7.28;75.30;99301.10;1797144;79;21807;-44
2022/09/25 01:38:39;;;;;;;5.62;4.00;;;;;;;7.23;75.30;99307.52;1728151;83;21116;-43
2022/09/25 01:41:23;;;;;;;6.97;3.58;;;;;;;7.22;75.34;99307.28;1728698;83;21964;-43
2022/09/25 01:44:01;;;;;;;4.50;3.65;;;;;;;7.25;75.22;99312.02;1773604;79;21480;-43
2022/09/25 01:46:33;;;;;;;5.17;4.35;;;;;;;7.22;75.31;99305.94;1793158;79;20918;-43
2022/09/25 01:49:22;;;;;;;5.17;3.58;;;;;;;7.16;75.59;99300.56;1797165;79;20910;-43
2022/09/25 01:51:52;;;;;;;3.80;2.97;;;;;;;7.11;75.75;99302.70;1797284;79;21009;-43
2022/09/25 01:54:32;;;;;;;5.67;3.58;;;;;;;7.08;75.87;99303.36;1797038;79;21691;-43
2022/09/25 01:57:09;;;;;;;6.83;4.10;;;;;;;7.10;75.96;99305.95;1796914;79;21526;-43
2022/09/25 01:59:46;;;;;;;8.63;4.15;;;;;;;7.09;76.02;99301.68;1797195;79;21518;-43
2022/09/25 02:02:18;;;;;;;7.55;4.28;;;;;;;7.06;76.17;99313.70;1796435;79;21604;-43
2022/09/25 02:04:54;;;;;;;6.55;4.40;;;;;;;7.01;76.30;99303.15;1796936;79;20994;-43
2022/09/25 02:07:26;;;;;;;4.58;3.70;;;;;;;7.00;76.36;99303.70;1797091;79;21093;-43
2022/09/25 02:10:00;;;;;;;5.75;3.80;;;;;;;7.03;76.30;99303.02;1796924;79;21073;-43
2022/09/25 02:12:34;;;;;;;4.70;3.92;;;;;;;7.06;76.24;99303.71;1797206;79;21020;-43
2022/09/25 02:15:16;;;;;;;7.37;4.65;;;;;;;7.03;76.30;99301.67;1796249;79;21575;-43
2022/09/25 02:20:59;;;;;;;4.90;3.62;;;;;;;7.01;76.28;99305.28;1803557;79;21197;-43
2022/09/25 02:23:57;;;;;;;6.90;4.08;;;;;;;7.02;76.18;99306.83;1802886;79;21533;-43
2022/09/25 02:26:30;;;;;;;7.83;3.90;;;;;;;7.01;76.18;99304.49;1804383;79;21004;-43
2022/09/25 02:28:58;;;;;;;5.83;4.42;;;;;;;6.94;76.33;99306.39;1804162;79;21017;-43
2022/09/25 02:34:10;;;;;;;4.67;3.75;;;;;;;6.94;76.33;99303.70;1778391;79;22577;-43
2022/09/25 02:36:37;;;;;;;5.20;3.40;;;;;;;6.89;76.29;99303.91;1738719;82;20982;-43
2022/09/25 02:39:04;;;;;;;5.28;4.00;;;;;;;6.94;76.03;99307.18;1738619;82;21142;-43
2022/09/25 02:42:13;;;;;;;5.08;3.72;;;;;;;6.92;76.13;99305.37;1738648;82;20955;-43
2022/09/25 02:44:58;;;;;;;4.83;3.98;;;;;;;6.92;76.20;99308.06;1738985;82;20911;-43
2022/09/25 02:47:36;;;;;;;5.17;3.70;;;;;;;6.88;76.13;99303.69;1738646;82;21616;-43
2022/09/25 02:50:17;;;;;;;4.75;3.92;;;;;;;6.88;76.09;99311.77;1738704;82;21017;-43
2022/09/25 02:53:01;;;;;;;7.28;4.10;;;;;;;6.88;76.20;99307.72;1738691;82;21241;-43
2022/09/25 02:55:57;;;;;;;6.87;4.03;;;;;;;6.85;76.23;99312.45;1744312;81;20965;-43
2022/09/25 02:58:40;;;;;;;8.80;3.55;;;;;;;6.82;76.31;99310.44;1706951;84;21540;-43
2022/09/25 03:01:10;;;;;;;4.42;3.85;;;;;;;6.84;76.32;99310.88;1747449;81;21076;-43
2022/09/25 03:03:37;;;;;;;10.63;3.47;;;;;;;6.90;76.20;99307.63;1723137;83;20976;-43
2022/09/25 03:06:06;;;;;;;7.30;4.47;;;;;;;6.93;76.01;99306.16;1723173;83;21132;-43
2022/09/25 03:08:36;;;;;;;4.20;3.80;;;;;;;6.92;75.86;99304.61;1723293;83;20952;-43
2022/09/25 03:11:05;;;;;;;6.72;4.00;;;;;;;6.91;75.73;99301.69;1723174;83;20995;-43
2022/09/25 03:13:33;;;;;;;8.28;4.00;;;;;;;6.93;75.56;99300.20;1723296;83;21530;-43
2022/09/25 03:16:22;;;;;;;9.60;4.47;;;;;;;6.99;75.31;99298.08;1723086;83;21019;-43
2022/09/25 03:18:49;;;;;;;4.30;3.42;;;;;;;7.00;75.12;99301.02;1714303;83;21278;-44
2022/09/25 03:21:16;;;;;;;6.65;4.45;;;;;;;6.93;75.13;99304.25;1722975;83;20956;-43
2022/09/25 03:23:43;;;;;;;7.75;4.00;;;;;;;6.91;75.05;99308.42;1723314;83;21003;-43
2022/09/25 03:26:10;;;;;;;7.03;3.85;;;;;;;6.86;74.82;99304.04;1723203;83;20925;-43
2022/09/25 03:28:38;;;;;;;4.33;3.70;;;;;;;6.82;74.73;99307.74;1723171;83;21009;-43
2022/09/25 03:31:07;;;;;;;6.35;4.30;;;;;;;6.85;74.67;99307.06;1723269;83;21148;-43
2022/09/25 03:33:38;;;;;;;5.85;4.12;;;;;;;6.86;74.56;99312.69;1718509;83;20997;-44
2022/09/25 03:36:10;;;;;;;5.78;4.33;;;;;;;6.84;74.67;99316.26;1715509;83;21538;-43
2022/09/25 03:38:40;;;;;;;5.67;4.35;;;;;;;6.80;74.64;99316.15;1751756;81;20969;-43
2022/09/25 03:41:08;;;;;;;4.95;3.95;;;;;;;6.75;74.55;99319.62;1751808;81;21069;-43
2022/09/25 03:43:36;;;;;;;4.65;3.77;;;;;;;6.70;74.41;99323.88;1715622;83;21177;-43
2022/09/25 03:46:09;;;;;;;7.37;4.03;;;;;;;6.67;74.27;99325.91;1714932;83;21040;-43
2022/09/25 03:48:36;;;;;;;6.12;3.98;;;;;;;6.65;74.25;99330.27;1750943;82;20977;-43
2022/09/25 03:51:05;;;;;;;4.50;3.83;;;;;;;6.54;74.54;99328.55;1751036;82;21028;-43
2022/09/25 03:53:32;;;;;;;5.75;3.95;;;;;;;6.49;74.88;99332.80;1750886;82;21566;-44
2022/09/25 03:56:01;;;;;;;6.72;3.77;;;;;;;6.44;74.92;99323.59;1750911;82;21090;-43
2022/09/25 03:58:28;;;;;;;5.37;4.22;;;;;;;6.40;75.11;99334.80;1714715;83;21618;-43
2022/09/25 04:00:56;;;;;;;7.95;4.30;;;;;;;6.44;75.21;99328.97;1750973;81;20942;-43
2022/09/25 04:03:30;;;;;;;5.37;3.70;;;;;;;6.47;75.22;99335.61;1714888;83;21125;-44
2022/09/25 04:06:00;;;;;;;5.35;4.15;;;;;;;6.45;75.37;99331.90;1751031;81;21031;-43
2022/09/25 04:08:27;;;;;;;6.97;3.90;;;;;;;6.43;75.53;99333.36;1751118;81;21123;-43
2022/09/25 04:10:58;;;;;;;5.90;3.83;;;;;;;6.44;75.52;99335.70;1750932;81;21286;-43
2022/09/25 04:13:28;;;;;;;4.53;3.55;;;;;;;6.48;75.48;99337.98;1751318;82;21046;-43
2022/09/25 04:15:56;;;;;;;4.97;4.08;;;;;;;6.54;75.40;99335.28;1715208;83;21084;-43
2022/09/25 04:18:24;;;;;;;6.95;4.35;;;;;;;6.51;75.58;99340.00;1715234;83;20974;-43
2022/09/25 04:20:51;;;;;;;9.68;4.53;;;;;;;6.49;75.57;99340.88;1714981;83;21660;-43
2022/09/25 04:23:17;;;;;;;6.12;3.95;;;;;;;6.47;75.57;99335.06;1751008;82;21539;-43
2022/09/25 04:25:44;;;;;;;4.95;3.83;;;;;;;6.45;75.62;99335.14;1715024;83;21067;-42
2022/09/25 04:28:11;;;;;;;6.05;3.95;;;;;;;6.50;75.80;99339.77;1715043;83;21680;-43
2022/09/25 04:30:38;;;;;;;5.72;4.35;;;;;;;6.53;75.90;99339.67;1715172;83;21020;-43
2022/09/25 04:35:50;;;;;;;6.20;4.03;;;;;;;6.53;76.09;99343.72;1756427;81;21008;-43
2022/09/25 04:38:17;;;;;;;6.10;3.98;;;;;;;6.57;76.12;99350.56;1756085;81;21009;-43
2022/09/25 04:40:44;;;;;;;5.55;3.95;;;;;;;6.61;76.04;99346.08;1720175;83;21005;-43
2022/09/25 04:43:11;;;;;;;5.42;4.22;;;;;;;6.68;76.09;99339.61;1720287;83;21080;-43
2022/09/25 04:45:38;;;;;;;6.92;4.28;;;;;;;6.70;76.07;99350.81;1720373;83;21138;-43
2022/09/25 04:48:05;;;;;;;5.62;4.08;;;;;;;6.69;76.11;99349.23;1719991;83;21562;-43
2022/09/25 04:50:32;;;;;;;7.37;4.20;;;;;;;6.71;76.18;99351.05;1720116;83;21032;-43
2022/09/25 04:53:01;;;;;;;6.10;4.17;;;;;;;6.75;76.27;99353.30;1720150;83;21118;-42
2022/09/25 04:55:28;;;;;;;5.72;4.10;;;;;;;6.84;76.08;99342.65;1720401;83;20985;-43
2022/09/25 04:57:59;;;;;;;9.18;4.62;;;;;;;6.91;76.05;99349.63;1720241;83;21248;-43
2022/09/25 05:00:29;;;;;;;5.85;4.45;;;;;;;6.93;75.84;99347.93;1720387;83;21490;-43
2022/09/25 05:02:56;;;;;;;5.45;3.22;;;;;;;6.91;76.04;99352.89;1720392;83;21530;-43
2022/09/25 05:05:29;;;;;;;7.42;4.37;;;;;;;6.92;76.16;99349.08;1720228;83;21012;-43
2022/09/25 05:07:57;;;;;;;6.62;4.28;;;;;;;7.01;75.99;99340.33;1719549;83;21009;-43
2022/09/25 05:10:30;;;;;;;5.83;4.15;;;;;;;7.11;75.84;99348.53;1720510;83;21073;-43
2022/09/25 05:12:59;;;;;;;6.08;4.60;;;;;;;7.15;75.93;99351.56;1719890;83;21597;-43
2022/09/25 05:15:30;;;;;;;6.37;4.17;;;;;;;7.17;75.99;99353.91;1720698;83;21514;-43
2022/09/25 05:18:08;;;;;;;5.30;4.42;;;;;;;7.24;75.90;99356.84;1720523;83;21028;-43
2022/09/25 05:20:35;;;;;;;6.17;3.98;;;;;;;7.34;75.67;99350.99;1720112;83;20993;-43
2022/09/25 05:23:03;;;;;;;6.03;4.35;;;;;;;7.43;75.63;99358.41;1720395;83;21137;-43
2022/09/25 05:25:30;;;;;;;7.55;4.80;;;;;;;7.50;75.83;99366.73;1720398;83;20956;-43
2022/09/25 05:27:59;;;;;;;6.70;4.70;;;;;;;7.58;75.77;99365.02;1720435;83;21054;-42
2022/09/25 05:30:28;;;;;;;9.38;4.75;;;;;;;7.67;75.55;99364.34;1720740;83;21510;-43
2022/09/25 05:32:58;;;;;;;7.65;4.42;;;;;;;7.79;75.30;99365.68;1719996;83;21021;-43
2022/09/25 05:35:28;;;;;;;7.85;5.17;;;;;;;7.91;75.08;99357.55;1714764;83;21313;-43
2022/09/25 05:37:55;;;;;;;9.43;4.87;;;;;;;7.99;75.01;99370.11;1750925;82;26485;-43
2022/09/25 05:40:22;;;;;;;10.30;5.17;;;;;;;8.04;74.87;99360.42;1714573;83;21043;-43
2022/09/25 05:42:50;;;;;;;9.65;5.05;;;;;;;8.12;74.72;99369.53;1714848;83;21025;-43
2022/09/25 05:45:19;;;;;;;9.55;4.53;;;;;;;8.19;74.17;99366.45;1751070;82;22142;-43
2022/09/25 05:47:46;;;;;;;7.45;5.12;;;;;;;8.28;74.06;99357.64;1751272;81;21051;-43
2022/09/25 05:50:14;;;;;;;7.75;5.28;;;;;;;8.43;73.89;99362.11;1750732;82;20965;-43
2022/09/25 05:52:41;;;;;;;7.20;5.50;;;;;;;8.49;73.86;99368.84;1714645;83;21011;-43
2022/09/25 05:55:09;;;;;;;9.10;5.80;;;;;;;8.54;73.62;99371.30;1714600;83;21449;-43
2022/09/25 05:57:37;;;;;;;7.83;5.40;;;;;;;8.59;73.42;99367.78;1715403;83;20988;-43
2022/09/25 06:00:08;;;;;;;10.25;5.45;;;;;;;8.69;73.44;99369.19;1714916;83;21917;-43
2022/09/25 06:02:42;;;;;;;8.30;5.33;;;;;;;8.81;73.04;99367.76;1750880;81;20972;-43
2022/09/25 06:05:09;;;;;;;12.55;5.87;;;;;;;8.92;72.90;99370.74;1714678;83;20981;-43
2022/09/25 06:07:37;;;;;;;8.08;5.90;;;;;;;8.97;72.89;99372.62;1750843;82;21353;-43
2022/09/25 06:10:06;;;;;;;6.00;4.45;;;;;;;9.06;72.89;99372.45;1750970;82;21033;-43
2022/09/25 06:12:34;;;;;;;7.42;4.53;;;;;;;9.18;72.64;99374.30;1715246;83;21094;-43
2022/09/25 06:15:03;;;;;;;7.12;4.20;;;;;;;9.32;72.43;99372.72;1714832;83;21012;-43
2022/09/25 06:17:30;;;;;;;6.80;3.87;;;;;;;9.48;71.34;99376.77;1714963;83;21021;-43
2022/09/25 06:19:57;;;;;;;6.25;3.83;;;;;;;9.61;70.70;99382.28;1714776;83;21036;-43
2022/09/25 06:22:24;;;;;;;6.12;4.83;;;;;;;9.69;70.54;99381.30;1714859;83;21096;-43
2022/09/25 06:24:51;;;;;;;6.50;4.67;;;;;;;9.82;70.54;99379.28;1714759;83;21203;-43
2022/09/25 06:27:19;;;;;;;5.35;4.33;;;;;;;9.91;70.11;99381.21;1714611;83;21541;-43
2022/09/25 06:29:46;;;;;;;6.85;4.58;;;;;;;10.02;70.01;99384.34;1750919;82;21080;-43
2022/09/25 06:32:12;;;;;;;9.03;4.08;;;;;;;10.16;69.96;99380.42;1714899;83;21475;-43
2022/09/25 06:34:40;;;;;;;8.98;4.53;;;;;;;10.32;69.12;99387.89;1714623;83;21029;-43
2022/09/25 06:37:07;;;;;;;6.22;4.17;;;;;;;10.42;68.69;99381.90;1714748;83;21151;-43
2022/09/25 06:39:34;;;;;;;7.90;4.50;;;;;;;10.51;67.97;99382.46;1750688;82;21528;-43
2022/09/25 06:42:01;;;;;;;5.03;4.28;;;;;;;10.58;67.70;99377.76;1750854;82;20992;-43
2022/09/25 06:44:29;;;;;;;6.53;4.37;;;;;;;10.63;67.52;99382.89;1750810;82;21040;-43
2022/09/25 06:46:56;;;;;;;5.03;3.80;;;;;;;10.71;67.26;99379.95;1751124;82;21045;-43
2022/09/25 06:49:23;;;;;;;6.72;4.33;;;;;;;10.81;67.39;99379.36;1744972;82;23148;-43
2022/09/25 06:51:50;;;;;;;6.05;4.42;;;;;;;10.97;66.86;99378.47;1750994;82;21018;-43
2022/09/25 06:54:16;;;;;;;5.47;4.00;;;;;;;11.05;66.26;99374.16;1750864;82;20973;-43
2022/09/25 06:56:48;;;;;;;5.60;4.45;;;;;;;11.14;66.51;99377.98;1714632;83;21047;-43
2022/09/25 06:59:16;;;;;;;6.55;4.10;;;;;;;11.24;66.50;99375.45;1750696;81;21003;-43
2022/09/25 07:01:42;;;;;;;5.70;4.12;;;;;;;11.34;65.37;99374.05;1751082;82;21039;-43
2022/09/25 07:04:12;;;;;;;5.72;3.80;;;;;;;11.40;65.52;99375.31;1750623;82;21613;-43
2022/09/25 07:06:39;;;;;;;6.95;3.92;;;;;;;11.52;65.45;99377.81;1751021;82;21052;-43
2022/09/25 07:09:06;;;;;;;7.37;4.30;;;;;;;11.64;64.70;99374.13;1750794;82;21045;-43
2022/09/25 07:11:34;;;;;;;9.60;4.03;;;;;;;11.69;64.92;99371.88;1750898;82;21024;-43
2022/09/25 07:14:00;;;;;;;5.45;3.92;;;;;;;11.76;64.68;99375.31;1750733;82;21137;-43
2022/09/25 07:16:29;;;;;;;6.03;4.10;;;;;;;11.85;64.88;99370.39;1750751;82;20922;-43
2022/09/25 07:18:59;;;;;;;5.70;3.85;;;;;;;11.95;64.38;99379.84;1751017;82;21492;-43
2022/09/25 07:21:28;;;;;;;5.70;3.60;;;;;;;12.02;63.58;99377.20;1751037;82;21540;-43
2022/09/25 07:23:57;;;;;;;4.35;3.40;;;;;;;12.06;63.01;99373.95;1751256;81;21001;-43
2022/09/25 07:26:29;;;;;;;4.95;3.47;;;;;;;12.13;63.15;99371.34;1750931;82;23154;-43
2022/09/25 07:29:03;;;;;;;4.53;3.08;;;;;;;12.27;62.80;99368.01;1751054;82;21006;-43
2022/09/25 07:31:32;;;;;;;4.12;3.67;;;;;;;12.41;62.38;99375.76;1751210;82;20993;-43
2022/09/25 07:34:04;;;;;;;4.67;3.02;;;;;;;12.48;61.15;99369.05;1745100;81;21018;-43
2022/09/25 07:36:28;;;;;;;5.42;3.12;;;;;;;12.53;61.37;99366.00;1727363;82;21636;-43
2022/09/25 07:38:55;;;;;;;6.25;3.27;;;;;;;12.63;61.25;99370.75;1727265;83;23104;-43
2022/09/25 07:41:22;;;;;;;5.45;3.35;;;;;;;12.73;61.10;99369.90;1727316;83;21563;-43
2022/09/25 07:43:56;;;;;;;4.10;3.10;;;;;;;12.80;60.23;99367.23;1727572;83;21623;-43
2022/09/25 07:46:24;;;;;;;4.72;3.10;;;;;;;12.84;59.14;99366.69;1727759;83;21046;-44
2022/09/25 07:48:51;;;;;;;4.40;3.37;;;;;;;12.85;58.96;99370.98;1727518;83;21055;-44
2022/09/25 07:51:20;;;;;;;6.97;2.98;;;;;;;12.89;59.61;99360.91;1727408;83;21138;-44
2022/09/25 07:53:47;;;;;;;3.80;2.13;;;;;;;12.99;59.05;99370.53;1727616;83;21624;-44
2022/09/25 07:56:14;;;;;;;2.85;2.55;;;;;;;13.05;58.45;99373.12;1727581;83;21038;-44
2022/09/25 07:58:41;;;;;;;4.70;2.90;;;;;;;13.11;58.17;99376.32;1727698;83;21098;-43
2022/09/25 08:01:11;;;;;;;5.08;2.87;;;;;;;13.16;58.31;99373.25;1727684;83;21051;-43
2022/09/25 08:03:37;;;;;;;3.73;2.80;;;;;;;13.34;57.83;99367.37;1728102;83;21116;-43
2022/09/25 08:06:08;;;;;;;4.17;2.72;;;;;;;13.34;57.83;99367.37;1727644;83;21570;-44
2022/09/25 08:08:35;;;;;;;3.35;2.27;;;;;;;13.42;57.37;99372.28;1727650;83;21544;-44
2022/09/25 08:11:10;;;;;;;4.50;2.22;;;;;;;13.46;56.85;99370.36;1727573;83;21497;-43
2022/09/25 08:13:37;;;;;;;3.25;2.25;;;;;;;13.49;57.02;99370.41;1727395;83;21611;-43
2022/09/25 08:16:06;;;;;;;3.65;2.52;;;;;;;13.55;56.86;99374.92;1727350;83;21201;-43
2022/09/25 08:18:33;;;;;;;2.62;2.08;;;;;;;13.65;57.01;99367.98;1727561;83;21599;-44
2022/09/25 08:21:02;;;;;;;3.65;2.17;;;;;;;13.77;56.32;99360.27;1727537;83;21865;-44
2022/09/25 08:23:29;;;;;;;4.10;2.27;;;;;;;13.90;56.13;99361.50;1727419;83;20990;-44
2022/09/25 08:25:57;;;;;;;2.83;2.20;;;;;;;14.02;55.63;99365.07;1727488;83;21201;-44
2022/09/25 08:28:24;;;;;;;3.40;1.98;;;;;;;14.12;55.14;99361.62;1727310;83;21123;-44
2022/09/25 08:30:50;;;;;;;3.45;1.70;;;;;;;14.16;53.80;99363.77;1727481;83;20998;-44
2022/09/25 08:33:17;;;;;;;2.90;1.98;;;;;;;14.18;53.21;99352.70;1727294;83;21019;-44
2022/09/25 08:35:55;;;;;;;2.00;1.80;;;;;;;14.27;54.24;99358.58;1740525;81;21274;-44
2022/09/25 08:38:23;;;;;;;3.05;2.08;;;;;;;14.40;53.62;99350.84;1733772;82;20971;-44
2022/09/25 08:40:56;;;;;;;1.92;1.72;;;;;;;14.49;53.68;99355.35;1743122;82;22026;-44
2022/09/25 08:43:24;;;;;;;2.58;2.10;;;;;;;14.62;53.46;99358.52;1743119;82;21048;-43
2022/09/25 08:49:05;;;;;;;3.67;1.72;;;;;;;14.86;52.15;99348.24;1742851;82;21568;-43
2022/09/25 08:51:46;;;;;;;2.35;1.72;;;;;;;14.99;52.35;99341.23;1742912;82;21015;-43
2022/09/25 08:54:23;;;;;;;2.00;1.77;;;;;;;15.15;51.45;99347.67;1742969;82;21308;-43
2022/09/25 08:56:53;;;;;;;2.72;1.70;;;;;;;15.27;49.12;99345.13;1743118;81;21050;-44
2022/09/25 08:59:31;;;;;;;1.77;1.60;;;;;;;15.35;49.06;99348.03;1742827;81;21515;-44
2022/09/25 09:02:16;;;;;;;2.00;1.50;;;;;;;15.39;47.82;99337.91;1742900;82;21069;-44
2022/09/25 09:04:53;;;;;;;2.55;1.75;;;;;;;15.42;48.06;99334.38;1743112;82;21014;-44
2022/09/25 09:07:41;;;;;;;2.20;1.65;;;;;;;15.45;48.38;99339.84;1742694;81;21151;-44
2022/09/25 09:10:31;;;;;;;1.92;1.70;;;;;;;15.51;48.49;99333.42;1742287;81;21036;-44
2022/09/25 09:13:10;;;;;;;2.50;1.70;;;;;;;15.60;48.86;99335.95;1707358;83;21057;-44
2022/09/25 09:15:45;;;;;;;2.00;1.60;;;;;;;15.75;48.33;99333.97;1707732;84;20965;-44
2022/09/25 09:18:25;;;;;;;1.85;1.65;;;;;;;15.88;46.46;99325.52;1707405;84;21076;-44
2022/09/25 09:20:58;;;;;;;2.50;1.60;;;;;;;15.97;47.80;99331.37;1743239;81;21243;-44
2022/09/25 09:23:40;;;;;;;2.33;1.57;;;;;;;16.13;47.59;99328.75;1743021;82;20997;-44
2022/09/25 09:26:17;;;;;;;4.40;1.95;;;;;;;16.30;46.15;99323.81;1706905;84;21068;-44
2022/09/25 09:29:07;;;;;;;2.42;1.72;;;;;;;16.39;45.08;99317.31;1742928;82;21065;-43
2022/09/25 09:32:23;;;;;;;3.10;1.72;;;;;;;16.43;46.02;99315.33;1699850;81;21650;-43
2022/09/25 09:35:17;;;;;;;3.30;2.00;;;;;;;16.47;45.88;99314.13;1709564;83;21945;-43
2022/09/25 09:38:28;;;;;;;2.33;1.67;;;;;;;16.62;46.23;99313.48;1711030;83;21048;-43
2022/09/25 09:41:22;;;;;;;4.15;2.10;;;;;;;16.83;45.02;99311.98;1751040;82;21519;-44
2022/09/25 09:44:00;;;;;;;2.58;1.82;;;;;;;17.05;45.72;99315.91;1714280;83;21124;-44
2022/09/25 09:46:42;;;;;;;2.35;1.52;;;;;;;17.20;44.35;99313.25;1714749;83;21088;-44
2022/09/25 09:49:20;;;;;;;4.10;1.70;;;;;;;17.28;44.43;99309.28;1714266;83;21446;-44
2022/09/25 09:51:56;;;;;;;2.50;1.92;;;;;;;17.41;44.03;99313.07;1715004;83;21000;-44
2022/09/25 09:54:50;;;;;;;3.75;1.90;;;;;;;17.53;43.41;99307.06;1750934;81;21021;-44
2022/09/25 09:57:30;;;;;;;2.67;1.90;;;;;;;17.57;43.50;99303.69;1750975;82;21563;-44
2022/09/25 10:00:05;;;;;;;2.10;1.90;;;;;;;17.56;43.10;99299.41;1751387;82;21002;-44
2022/09/25 10:02:41;;;;;;;1.85;1.60;;;;;;;17.68;43.70;99306.35;1750132;81;21131;-44
2022/09/25 10:05:29;;;;;;;1.70;1.50;;;;;;;17.63;41.10;99304.05;1750643;81;20933;-44
2022/09/25 10:07:55;;;;;;;2.72;1.52;;;;;;;17.38;41.24;99305.64;1750846;82;21076;-44
2022/09/25 10:10:30;;;;;;;2.75;1.75;;;;;;;17.18;41.87;99299.98;1686385;83;21568;-43
2022/09/25 10:13:00;;;;;;;2.85;1.77;;;;;;;17.17;42.35;99299.00;1687942;83;21064;-43
2022/09/25 10:15:31;;;;;;;4.35;1.60;;;;;;;17.23;41.59;99299.52;1732097;82;21809;-44
2022/09/25 10:18:00;;;;;;;2.05;1.50;;;;;;;17.28;41.83;99299.08;1750645;82;21581;-44
2022/09/25 10:20:40;;;;;;;2.12;1.90;;;;;;;17.35;41.49;99295.50;1751372;82;20973;-44
2022/09/25 10:23:28;;;;;;;3.30;1.57;;;;;;;17.38;41.89;99289.20;1750943;82;21084;-44
2022/09/25 10:25:55;;;;;;;1.70;1.45;;;;;;;17.37;42.46;99294.52;1714830;83;21079;-44
2022/09/25 10:28:30;;;;;;;2.12;1.60;;;;;;;17.23;42.17;99290.54;1750969;82;21882;-44
2022/09/25 10:30:56;;;;;;;2.25;1.80;;;;;;;17.15;42.56;99283.55;1751223;82;21037;-44
2022/09/25 10:33:25;;;;;;;7.50;1.90;;;;;;;17.15;43.76;99278.85;1714902;83;20960;-44
2022/09/25 10:35:53;;;;;;;2.22;1.57;;;;;;;17.19;42.09;99276.85;1754076;81;21579;-44
2022/09/25 10:38:44;;;;;;;3.40;1.90;;;;;;;17.15;41.97;99276.70;1720013;83;21040;-44
2022/09/25 10:41:14;;;;;;;1.65;1.55;;;;;;;16.99;43.09;99276.47;1720036;83;21323;-44
2022/09/25 10:43:59;;;;;;;6.17;2.05;;;;;;;16.81;43.45;99271.90;1719840;83;21103;-44
2022/09/25 10:52:14;;;;;;;1.77;1.47;;;;;;;16.32;44.66;99279.03;1720210;83;21024;-44
2022/09/25 10:54:41;;;;;;;2.45;1.72;;;;;;;16.15;45.69;99274.45;1720419;83;21243;-44
2022/09/25 10:57:24;;;;;;;2.05;1.57;;;;;;;16.16;45.94;99274.64;1693855;83;21028;-44
2022/09/25 10:59:51;;;;;;;2.45;2.00;;;;;;;16.21;45.86;99272.86;1720328;83;21009;-43
2022/09/25 11:02:37;;;;;;;3.05;1.80;;;;;;;16.21;45.02;99272.86;1720403;83;21020;-44
2022/09/25 11:05:07;;;;;;;2.80;2.00;;;;;;;16.16;45.61;99265.08;1715572;83;21455;-44
2022/09/25 11:07:36;;;;;;;1.95;1.75;;;;;;;16.12;45.62;99262.34;1694654;83;21007;-44
2022/09/25 11:10:03;;;;;;;3.10;1.90;;;;;;;16.08;45.18;99260.99;1720449;83;21042;-43
2022/09/25 11:12:31;;;;;;;2.58;1.70;;;;;;;16.02;45.66;99259.84;1694448;83;21035;-44
2022/09/25 11:15:07;;;;;;;3.65;1.90;;;;;;;15.96;45.73;99260.09;1720576;83;21026;-43
2022/09/25 11:17:41;;;;;;;2.10;1.72;;;;;;;15.91;46.39;99256.40;1720582;83;21087;-44
2022/09/25 11:20:19;;;;;;;1.87;1.70;;;;;;;15.86;46.60;99265.02;1720573;83;21085;-44
2022/09/25 11:22:58;;;;;;;1.95;1.60;;;;;;;15.81;46.18;99257.22;1720263;83;20989;-44
2022/09/25 11:25:36;;;;;;;3.65;1.80;;;;;;;15.75;46.61;99262.11;1720152;83;20961;-44
2022/09/25 11:28:40;;;;;;;3.33;1.80;;;;;;;15.71;47.01;99256.67;1720221;83;21036;-44
2022/09/25 11:31:36;;;;;;;2.58;1.90;;;;;;;15.76;47.10;99252.16;1720397;83;21075;-44
2022/09/25 11:34:37;;;;;;;3.45;1.80;;;;;;;15.95;45.75;99247.59;1720335;83;21789;-43
2022/09/25 11:37:26;;;;;;;2.60;1.90;;;;;;;16.13;46.38;99241.23;1714513;83;21075;-43
2022/09/25 11:43:03;;;;;;;2.25;1.55;;;;;;;16.18;45.03;99242.97;1704702;81;21578;-43
2022/09/25 11:45:41;;;;;;;2.62;1.70;;;;;;;16.09;45.43;99248.10;1750875;81;21025;-43
2022/09/25 11:48:33;;;;;;;2.45;1.80;;;;;;;16.06;45.37;99242.86;1714979;83;21248;-43
2022/09/25 11:51:34;;;;;;;2.65;1.90;;;;;;;16.06;45.77;99238.75;1727505;81;21453;-44
2022/09/25 11:54:36;;;;;;;2.15;1.80;;;;;;;16.05;45.72;99238.56;1741689;82;21649;-44
2022/09/25 11:57:32;;;;;;;2.50;1.95;;;;;;;16.01;45.68;99243.86;1742819;82;21568;-44
2022/09/25 12:00:28;;;;;;;2.62;1.82;;;;;;;15.96;46.18;99240.17;1742781;82;21551;-43
2022/09/25 12:03:19;;;;;;;2.00;1.77;;;;;;;15.87;45.86;99236.50;1742938;82;21205;-44
2022/09/25 12:06:06;;;;;;;1.60;1.50;;;;;;;15.83;45.52;99245.28;1742414;82;20953;-44
2022/09/25 12:09:18;;;;;;;1.80;1.55;;;;;;;15.80;45.12;99245.30;1715170;82;20997;-44
2022/09/25 12:12:11;;;;;;;3.60;2.10;;;;;;;15.87;44.84;99237.88;1713150;83;21045;-44
2022/09/25 12:14:49;;;;;;;2.55;1.70;;;;;;;16.01;44.84;99235.06;1712663;83;21539;-44
2022/09/25 12:17:31;;;;;;;2.77;1.90;;;;;;;16.16;44.84;99239.87;1712943;83;22120;-44
2022/09/25 12:20:28;;;;;;;2.90;1.57;;;;;;;16.25;43.71;99235.32;1712968;83;20988;-44
2022/09/25 12:23:11;;;;;;;3.40;1.82;;;;;;;16.26;43.50;99234.93;1713106;83;20941;-44
2022/09/25 12:26:01;;;;;;;2.77;1.70;;;;;;;16.29;44.31;99234.70;1713272;83;21504;-44
2022/09/25 12:29:09;;;;;;;2.30;1.80;;;;;;;16.40;43.39;99239.53;1713069;83;21072;-44
2022/09/25 12:32:10;;;;;;;1.62;1.40;;;;;;;16.57;43.19;99233.73;1655439;86;21226;-44
2022/09/25 12:34:55;;;;;;;2.42;1.70;;;;;;;16.88;42.36;99237.63;1655577;86;21608;-44